Terminal Aerodrome Forecast
Issued by NWS Paducah, KY

Home | Current Version | Previous Version | Text Only | Print | Product List | Glossary On
Versions: 1 2 3 4 5 6 7 8 9 10 11 12 13 14 15 16 17 18 19 20
975
FTUS43 KPAH 240529
TAFPAH
TAF
KPAH 240529Z 2406/2506 07007KT P6SM VCSH SCT009 OVC050
      TEMPO 2406/2408 BKN009
     FM240800 07007KT 4SM -SHRA BR OVC008
     FM241100 10008KT 2SM SHRA VCTS OVC003CB
     FM241500 15007KT P6SM -SHRA OVC008
     FM242100 19011G20KT 1 1/2SM +TSRA BR OVC008CB
     FM250400 23016G25KT P6SM OVC070=

USA.gov is the U.S. government's official web portal to all federal, state and local government web resources and services.